createdAt,value
2017-05-01T00:01:31.731Z,6.62
2017-05-01T00:03:59.092Z,6.98
2017-05-01T00:06:26.521Z,7.56
2017-05-01T00:08:53.868Z,7.06
2017-05-01T00:11:21.156Z,7.18
2017-05-01T00:13:48.528Z,6.44
2017-05-01T00:16:15.855Z,6.96
2017-05-01T00:18:43.105Z,6.10
2017-05-01T00:21:10.409Z,6.32
2017-05-01T00:23:37.688Z,6.30
2017-05-01T00:26:05.012Z,7.18
2017-05-01T00:28:32.285Z,7.04
2017-05-01T00:30:59.538Z,7.02
2017-05-01T00:33:26.925Z,7.72
2017-05-01T00:35:54.241Z,7.20
2017-05-01T00:38:22.269Z,6.86
2017-05-01T00:40:50.460Z,8.54
2017-05-01T00:43:18.495Z,7.50
2017-05-01T00:45:45.763Z,7.54
2017-05-01T00:48:13.049Z,8.08
2017-05-01T00:50:41.111Z,9.80
2017-05-01T00:53:08.584Z,7.50
2017-05-01T00:55:36.618Z,9.64
2017-05-01T00:58:03.876Z,7.36
2017-05-01T01:00:31.227Z,8.44
2017-05-01T01:02:58.561Z,8.62
2017-05-01T01:05:25.952Z,7.10
2017-05-01T01:07:53.212Z,7.86
2017-05-01T01:10:26.536Z,6.08
2017-05-01T01:12:53.814Z,6.98
2017-05-01T01:15:21.931Z,7.12
2017-05-01T01:17:49.218Z,8.52
2017-05-01T01:20:16.641Z,8.32
2017-05-01T01:22:43.918Z,7.04
2017-05-01T01:25:11.203Z,6.94
2017-05-01T01:27:38.658Z,7.18
2017-05-01T01:30:06.007Z,6.98
2017-05-01T01:32:33.316Z,7.84
2017-05-01T01:35:01.314Z,7.52
2017-05-01T01:37:28.752Z,7.20
2017-05-01T01:39:56.783Z,6.80
2017-05-01T01:42:24.031Z,7.64
2017-05-01T01:44:51.356Z,8.94
2017-05-01T01:47:18.828Z,7.84
2017-05-01T01:49:46.104Z,8.30
2017-05-01T01:52:13.376Z,8.64
2017-05-01T01:54:40.695Z,7.54
2017-05-01T01:57:07.973Z,7.20
2017-05-01T01:59:35.235Z,8.06
2017-05-01T02:02:02.535Z,8.64
2017-05-01T02:04:29.841Z,7.86
2017-05-01T02:06:57.183Z,7.00
2017-05-01T02:09:24.542Z,7.96
2017-05-01T02:11:51.823Z,8.04
2017-05-01T02:14:19.164Z,8.08
2017-05-01T02:16:46.450Z,8.90
2017-05-01T02:19:13.728Z,8.44
2017-05-01T02:21:41.015Z,10.22
2017-05-01T02:24:09.057Z,9.18
2017-05-01T02:26:36.371Z,10.28
2017-05-01T02:29:03.686Z,7.88
2017-05-01T02:31:31.063Z,9.20
2017-05-01T02:33:58.341Z,10.90
2017-05-01T02:36:26.413Z,9.50
2017-05-01T02:38:54.403Z,9.24
2017-05-01T02:41:21.691Z,10.14
2017-05-01T02:43:48.972Z,9.62
2017-05-01T02:46:16.336Z,10.34
2017-05-01T02:48:43.625Z,10.10
2017-05-01T02:51:11.655Z,12.50
2017-05-01T02:53:38.984Z,10.90
2017-05-01T02:56:06.266Z,12.14
2017-05-01T02:58:33.551Z,11.00
2017-05-01T03:01:00.877Z,11.18
2017-05-01T03:03:28.190Z,10.60
2017-05-01T03:05:56.218Z,11.94
2017-05-01T03:08:23.584Z,11.14
2017-05-01T03:10:50.883Z,11.50
2017-05-01T03:13:18.876Z,11.60
2017-05-01T03:15:46.201Z,12.34
2017-05-01T03:18:13.452Z,12.94
2017-05-01T03:20:40.858Z,12.36
2017-05-01T03:23:08.201Z,12.34
2017-05-01T03:25:36.216Z,12.38
2017-05-01T03:28:03.540Z,15.64
2017-05-01T03:30:30.835Z,12.98
2017-05-01T03:32:58.125Z,11.58
2017-05-01T03:37:59.562Z,11.56
2017-05-01T03:40:26.856Z,10.34
2017-05-01T03:42:54.208Z,10.80
2017-05-01T03:45:21.528Z,10.86
2017-05-01T03:47:48.833Z,10.84
2017-05-01T03:50:16.177Z,11.70
2017-05-01T03:52:43.429Z,11.26
2017-05-01T03:55:10.688Z,11.38
2017-05-01T03:57:38.016Z,10.42
2017-05-01T04:00:05.339Z,10.70
2017-05-01T04:02:32.664Z,10.96
2017-05-01T04:04:59.941Z,11.12
2017-05-01T04:07:27.208Z,11.02
2017-05-01T04:09:54.533Z,10.14
2017-05-01T04:12:21.816Z,11.04
2017-05-01T04:14:49.110Z,10.77
2017-05-01T04:17:17.167Z,10.70
2017-05-01T04:19:44.465Z,10.46
2017-05-01T04:22:11.720Z,10.48
2017-05-01T04:24:38.969Z,8.98
2017-05-01T04:27:06.265Z,10.64
2017-05-01T04:29:33.624Z,11.70
2017-05-01T04:32:00.935Z,11.18
2017-05-01T04:34:28.232Z,10.80
2017-05-01T04:36:55.532Z,10.16
2017-05-01T04:39:22.832Z,10.52
2017-05-01T04:41:50.347Z,10.94
2017-05-01T04:44:17.782Z,10.44
2017-05-01T04:46:45.080Z,10.34
2017-05-01T04:49:13.079Z,9.96
2017-05-01T04:51:40.344Z,10.30
2017-05-01T04:54:07.613Z,10.20
2017-05-01T04:56:34.911Z,9.50
2017-05-01T04:59:02.195Z,10.90
2017-05-01T05:01:30.267Z,9.94
2017-05-01T05:03:58.302Z,11.22
2017-05-01T05:06:25.604Z,10.78
2017-05-01T05:08:53.651Z,10.90
2017-05-01T05:11:20.940Z,9.72
2017-05-01T05:13:48.945Z,10.52
2017-05-01T05:16:16.187Z,10.04
2017-05-01T05:18:43.440Z,9.48
2017-05-01T05:21:11.406Z,8.80
2017-05-01T05:23:39.428Z,8.64
2017-05-01T05:26:06.694Z,10.12
2017-05-01T05:28:33.972Z,9.98
2017-05-01T05:31:01.260Z,9.24
2017-05-01T05:33:29.336Z,9.62
2017-05-01T05:35:57.352Z,8.88
2017-05-01T05:38:24.656Z,9.12
2017-05-01T05:40:52.686Z,8.46
2017-05-01T05:43:20.169Z,7.80
2017-05-01T05:45:47.402Z,8.74
2017-05-01T05:48:14.643Z,10.22
2017-05-01T05:50:41.929Z,9.48
2017-05-01T05:53:09.246Z,9.80
2017-05-01T05:55:36.555Z,6.92
2017-05-01T05:58:03.878Z,6.92
2017-05-01T06:00:31.208Z,7.32
2017-05-01T06:02:59.184Z,8.26
2017-05-01T06:05:27.188Z,8.56
2017-05-01T06:07:54.592Z,7.40
2017-05-01T06:10:22.033Z,5.72
2017-05-01T06:12:49.356Z,7.78
2017-05-01T06:15:16.631Z,7.38
2017-05-01T06:17:43.946Z,6.92
2017-05-01T06:20:11.267Z,7.66
2017-05-01T06:22:38.508Z,6.36
2017-05-01T06:25:05.808Z,6.44
2017-05-01T06:27:33.068Z,7.22
2017-05-01T06:30:00.364Z,6.74
2017-05-01T06:32:27.697Z,6.78
2017-05-01T06:34:55.749Z,6.22
2017-05-01T06:37:23.080Z,6.64
2017-05-01T06:39:50.368Z,4.82
2017-05-01T06:42:17.615Z,7.00
2017-05-01T06:44:44.868Z,5.18
2017-05-01T06:47:12.263Z,6.50
2017-05-01T06:49:39.547Z,5.48
2017-05-01T06:52:07.554Z,4.62
2017-05-01T06:54:34.830Z,5.84
2017-05-01T06:57:02.125Z,4.16
2017-05-01T06:59:30.167Z,4.86
2017-05-01T07:01:57.409Z,5.18
2017-05-01T07:04:24.730Z,5.86
2017-05-01T07:06:52.823Z,3.64
2017-05-01T07:09:20.093Z,3.84
2017-05-01T07:11:47.405Z,5.22
2017-05-01T07:14:14.871Z,4.42
2017-05-01T07:16:42.185Z,4.42
2017-05-01T07:19:09.428Z,4.38
2017-05-01T07:21:36.707Z,7.72
2017-05-01T07:24:04.168Z,5.12
2017-05-01T07:26:31.431Z,6.46
2017-05-01T07:28:58.709Z,5.66
2017-05-01T07:31:26.055Z,6.34
2017-05-01T07:33:53.380Z,6.88
2017-05-01T07:36:20.759Z,7.20
2017-05-01T07:38:55.059Z,5.16
2017-05-01T07:41:22.343Z,5.56
2017-05-01T07:43:49.725Z,5.94
2017-05-01T07:46:17.049Z,3.18
2017-05-01T07:48:44.358Z,7.88
2017-05-01T07:51:12.545Z,5.20
2017-05-01T07:53:40.800Z,5.92
2017-05-01T07:56:08.090Z,4.70
2017-05-01T07:58:36.169Z,4.06
2017-05-01T08:01:04.185Z,10.48
2017-05-01T08:03:31.473Z,3.88
2017-05-01T08:05:58.839Z,4.66
2017-05-01T08:08:26.247Z,5.06
2017-05-01T08:10:53.560Z,7.74
2017-05-01T08:13:20.903Z,3.90
2017-05-01T08:15:48.182Z,3.52
2017-05-01T08:18:15.494Z,5.72
2017-05-01T08:20:42.779Z,4.68
2017-05-01T08:23:10.128Z,5.92
2017-05-01T08:25:37.424Z,4.70
2017-05-01T08:28:05.562Z,4.14
2017-05-01T08:30:32.898Z,3.76
2017-05-01T08:33:00.194Z,5.02
2017-05-01T08:35:27.498Z,7.52
2017-05-01T08:37:54.787Z,6.62
2017-05-01T08:40:22.311Z,3.46
2017-05-01T08:42:50.355Z,3.32
2017-05-01T08:45:17.717Z,3.54
2017-05-01T08:47:45.039Z,2.02
2017-05-01T08:50:12.346Z,3.18
2017-05-01T08:52:39.675Z,3.38
2017-05-01T08:55:06.958Z,3.54
2017-05-01T08:57:34.276Z,1.74
2017-05-01T09:00:01.645Z,4.10
2017-05-01T09:02:28.949Z,2.30
2017-05-01T09:04:56.229Z,1.94
2017-05-01T09:07:23.508Z,3.12
2017-05-01T09:09:50.914Z,2.10
2017-05-01T09:12:18.224Z,5.52
2017-05-01T09:14:45.544Z,2.52
2017-05-01T09:17:12.986Z,3.32
2017-05-01T09:19:40.275Z,5.68
2017-05-01T09:22:08.311Z,4.72
2017-05-01T09:24:35.650Z,4.90
2017-05-01T09:27:02.959Z,3.80
2017-05-01T09:29:30.241Z,3.30
2017-05-01T09:31:57.517Z,2.92
2017-05-01T09:34:24.901Z,1.62
2017-05-01T09:36:52.365Z,2.48
2017-05-01T09:39:19.707Z,3.10
2017-05-01T09:41:47.049Z,2.60
2017-05-01T09:44:14.322Z,2.40
2017-05-01T09:46:41.698Z,2.06
2017-05-01T09:49:09.165Z,2.84
2017-05-01T09:51:36.658Z,2.00
2017-05-01T09:54:03.961Z,2.02
2017-05-01T09:56:31.212Z,2.62
2017-05-01T09:58:58.521Z,1.62
2017-05-01T10:01:25.849Z,1.14
2017-05-01T10:03:53.173Z,1.58
2017-05-01T10:06:20.567Z,1.90
2017-05-01T10:08:47.910Z,1.66
2017-05-01T10:11:15.257Z,1.24
2017-05-01T10:13:49.514Z,1.58
2017-05-01T10:16:16.915Z,2.94
2017-05-01T10:18:44.961Z,2.48
2017-05-01T10:21:12.513Z,2.76
2017-05-01T10:23:39.844Z,1.58
2017-05-01T10:26:07.244Z,1.20
2017-05-01T10:28:34.566Z,5.16
2017-05-01T10:31:02.051Z,3.30
2017-05-01T10:33:29.317Z,16.52
2017-05-01T10:35:56.635Z,3.52
2017-05-01T10:38:23.965Z,2.36
2017-05-01T10:40:51.245Z,2.56
2017-05-01T10:43:19.317Z,4.42
2017-05-01T10:45:47.387Z,2.06
2017-05-01T10:48:15.427Z,2.26
2017-05-01T10:50:42.896Z,1.76
2017-05-01T10:53:10.213Z,2.10
2017-05-01T10:55:37.551Z,4.36
2017-05-01T10:58:12.547Z,0.98
2017-05-01T11:00:40.049Z,1.36
2017-05-01T11:03:08.082Z,1.06
2017-05-01T11:05:42.289Z,1.26
2017-05-01T11:08:09.657Z,2.04
2017-05-01T11:10:37.011Z,2.82
2017-05-01T11:13:04.330Z,2.48
2017-05-01T11:15:31.631Z,2.22
2017-05-01T11:17:58.953Z,0.72
2017-05-01T11:20:26.487Z,1.16
2017-05-01T11:22:53.909Z,1.86
2017-05-01T11:25:21.162Z,1.84
2017-05-01T11:27:48.533Z,0.88
2017-05-01T11:30:15.829Z,1.76
2017-05-01T11:32:43.865Z,1.70
2017-05-01T11:35:11.294Z,1.30
2017-05-01T11:37:38.579Z,2.86
2017-05-01T11:40:05.867Z,1.64
2017-05-01T11:42:33.161Z,1.10
2017-05-01T11:45:00.491Z,0.92
2017-05-01T11:47:27.821Z,1.54
2017-05-01T11:49:55.138Z,1.48
2017-05-01T11:52:22.404Z,1.48
2017-05-01T11:54:49.696Z,1.36
2017-05-01T11:57:17.023Z,1.90
2017-05-01T11:59:44.673Z,1.90
2017-05-01T12:02:12.754Z,1.52
2017-05-01T12:04:40.762Z,1.40
2017-05-01T12:07:09.308Z,2.32
2017-05-01T12:09:37.332Z,1.84
2017-05-01T12:12:04.627Z,5.84
2017-05-01T12:14:31.918Z,1.98
2017-05-01T12:16:59.216Z,2.52
2017-05-01T12:19:26.515Z,4.56
2017-05-01T12:21:54.668Z,3.28
2017-05-01T12:24:21.974Z,3.82
2017-05-01T12:26:49.320Z,3.92
2017-05-01T12:29:17.373Z,3.34
2017-05-01T12:31:44.741Z,9.56
2017-05-01T12:34:12.032Z,2.54
2017-05-01T12:36:39.332Z,2.80
2017-05-01T12:39:06.749Z,2.62
2017-05-01T12:41:34.033Z,2.42
2017-05-01T12:44:01.316Z,2.54
2017-05-01T12:46:28.755Z,3.64
2017-05-01T12:48:56.072Z,1.76
2017-05-01T12:51:24.093Z,2.70
2017-05-01T12:53:51.419Z,1.26
2017-05-01T12:56:18.845Z,1.54
2017-05-01T12:58:46.171Z,2.40
2017-05-01T13:01:13.492Z,2.78
2017-05-01T13:03:41.520Z,1.88
2017-05-01T13:06:08.912Z,2.16
2017-05-01T13:08:36.181Z,2.38
2017-05-01T13:11:04.219Z,2.06
2017-05-01T13:13:31.608Z,2.76
2017-05-01T13:15:59.729Z,2.64
2017-05-01T13:18:27.021Z,2.70
2017-05-01T13:20:54.363Z,2.10
2017-05-01T13:23:21.724Z,1.74
2017-05-01T13:25:49.007Z,1.50
2017-05-01T13:28:16.335Z,2.48
2017-05-01T13:30:43.676Z,2.54
2017-05-01T13:33:10.980Z,1.80
2017-05-01T13:35:39.028Z,2.80
2017-05-01T13:38:06.344Z,4.70
2017-05-01T13:40:34.423Z,1.96
2017-05-01T13:43:02.666Z,2.76
2017-05-01T13:45:30.048Z,2.10
2017-05-01T13:47:58.117Z,2.86
2017-05-01T13:50:26.224Z,2.48
2017-05-01T13:52:53.662Z,2.48
2017-05-01T13:55:21.752Z,2.10
2017-05-01T13:57:49.861Z,3.72
2017-05-01T14:00:17.232Z,3.74
2017-05-01T14:02:44.546Z,2.10
2017-05-01T14:05:13.093Z,4.98
2017-05-01T14:07:40.459Z,2.10
2017-05-01T14:10:07.783Z,2.98
2017-05-01T14:12:35.129Z,2.70
2017-05-01T14:15:02.432Z,3.56
2017-05-01T14:17:29.776Z,2.68
2017-05-01T14:19:57.095Z,4.32
2017-05-01T14:22:25.184Z,3.40
2017-05-01T14:24:52.517Z,2.68
2017-05-01T14:27:19.833Z,4.06
2017-05-01T14:29:47.243Z,2.16
2017-05-01T14:32:15.369Z,2.94
2017-05-01T14:34:42.712Z,3.40
2017-05-01T14:37:10.061Z,2.82
2017-05-01T14:39:37.358Z,3.12
2017-05-01T14:42:04.777Z,4.23
2017-05-01T14:44:32.103Z,5.38
2017-05-01T14:46:59.431Z,3.43
2017-05-01T14:49:26.775Z,3.42
2017-05-01T14:51:54.157Z,2.94
2017-05-01T14:54:21.576Z,4.00
2017-05-01T14:56:48.905Z,3.62
2017-05-01T14:59:16.312Z,1.40
2017-05-01T15:01:43.647Z,3.40
2017-05-01T15:04:11.719Z,5.68
2017-05-01T15:06:39.797Z,3.72
2017-05-01T15:09:07.190Z,3.78
2017-05-01T15:11:34.506Z,1.40
2017-05-01T15:14:02.601Z,3.82
2017-05-01T15:16:30.094Z,3.32
2017-05-01T15:18:57.381Z,3.42
2017-05-01T15:21:24.761Z,4.67
2017-05-01T15:23:52.907Z,5.38
2017-05-01T15:26:20.305Z,10.15
2017-05-01T15:28:48.433Z,4.00
2017-05-01T15:31:15.750Z,7.95
2017-05-01T15:33:43.902Z,7.23
2017-05-01T15:36:11.260Z,5.28
2017-05-01T15:38:38.579Z,4.93
2017-05-01T15:41:05.965Z,4.63
2017-05-01T15:43:33.297Z,3.83
2017-05-01T15:46:00.763Z,6.83
2017-05-01T15:48:28.033Z,5.47
2017-05-01T15:50:55.385Z,5.22
2017-05-01T15:53:22.736Z,5.40
2017-05-01T15:55:50.101Z,4.93
2017-05-01T15:58:17.487Z,7.18
2017-05-01T16:00:44.827Z,5.60
2017-05-01T16:03:12.206Z,8.53
2017-05-01T16:05:39.605Z,6.40
2017-05-01T16:08:14.695Z,4.87
2017-05-01T16:10:42.019Z,8.38
2017-05-01T16:13:09.379Z,10.60
2017-05-01T16:15:36.848Z,6.52
2017-05-01T16:18:04.268Z,10.95
2017-05-01T16:20:31.639Z,8.44
2017-05-01T16:22:59.709Z,9.77
2017-05-01T16:25:27.131Z,2.56
2017-05-01T16:27:54.513Z,3.87
2017-05-01T16:30:21.869Z,5.52
2017-05-01T16:32:49.381Z,4.48
2017-05-01T16:35:17.004Z,4.70
2017-05-01T16:37:44.448Z,6.27
2017-05-01T16:40:11.807Z,3.68
2017-05-01T16:42:39.217Z,5.92
2017-05-01T16:45:07.343Z,5.26
2017-05-01T16:47:34.780Z,12.48
2017-05-01T16:50:02.113Z,6.78
2017-05-01T16:52:30.263Z,13.02
2017-05-01T16:54:57.596Z,4.28
2017-05-01T16:57:25.128Z,5.63
2017-05-01T16:59:53.238Z,5.42
2017-05-01T17:02:20.605Z,4.60
2017-05-01T17:04:47.949Z,3.64
2017-05-01T17:07:15.269Z,4.58
2017-05-01T17:09:43.406Z,4.14
2017-05-01T17:12:10.910Z,5.52
2017-05-01T17:14:39.018Z,5.68
2017-05-01T17:17:06.422Z,5.07
2017-05-01T17:19:34.264Z,3.60
2017-05-01T17:22:01.636Z,4.27
2017-05-01T17:24:28.980Z,5.68
2017-05-01T17:26:56.346Z,6.43
2017-05-01T17:29:23.637Z,10.35
2017-05-01T17:31:51.082Z,8.92
2017-05-01T17:34:18.418Z,12.17
2017-05-01T17:36:45.750Z,10.23
2017-05-01T17:39:13.923Z,8.98
2017-05-01T17:41:42.069Z,16.45
2017-05-01T17:44:09.411Z,7.90
2017-05-01T17:46:36.813Z,10.75
2017-05-01T17:49:04.868Z,10.53
2017-05-01T17:51:32.374Z,8.22
2017-05-01T17:53:59.820Z,9.47
2017-05-01T17:56:27.959Z,30.15
2017-05-01T17:59:02.211Z,22.68
2017-05-01T18:01:30.758Z,20.32
2017-05-01T18:03:58.314Z,6.06
2017-05-01T18:06:25.852Z,9.43
2017-05-01T18:08:53.245Z,9.05
2017-05-01T18:11:20.559Z,14.22
2017-05-01T18:13:48.786Z,9.87
2017-05-01T18:16:17.256Z,7.70
2017-05-01T18:18:44.558Z,8.17
2017-05-01T18:21:11.887Z,7.28
2017-05-01T18:23:39.197Z,8.55
2017-05-01T18:26:07.369Z,16.52
2017-05-01T18:28:35.509Z,8.13
2017-05-01T18:31:02.985Z,4.50
2017-05-01T18:33:30.319Z,5.40
2017-05-01T18:35:57.684Z,5.87
2017-05-01T18:38:25.131Z,4.88
2017-05-01T18:40:52.461Z,5.43
2017-05-01T18:43:20.492Z,7.12
2017-05-01T18:45:47.768Z,8.75
2017-05-01T18:48:15.148Z,9.77
2017-05-01T18:50:43.309Z,9.08
2017-05-01T18:53:10.661Z,9.40
2017-05-01T18:55:38.017Z,12.75
2017-05-01T18:58:05.396Z,9.43
2017-05-01T19:00:32.745Z,10.30
2017-05-01T19:03:00.168Z,11.97
2017-05-01T19:05:27.496Z,9.37
2017-05-01T19:07:55.029Z,13.43
2017-05-01T19:10:22.410Z,9.65
2017-05-01T19:12:50.488Z,10.40
2017-05-01T19:15:18.547Z,10.48
2017-05-01T19:17:45.876Z,14.45
2017-05-01T19:20:13.909Z,8.88
2017-05-01T19:22:41.326Z,16.83
2017-05-01T19:25:08.775Z,16.90
2017-05-01T19:27:36.273Z,13.00
2017-05-01T19:30:04.430Z,11.63
2017-05-01T19:32:31.782Z,14.02
2017-05-01T19:34:59.148Z,11.88
2017-05-01T19:37:26.539Z,11.22
2017-05-01T19:39:54.631Z,9.55
2017-05-01T19:42:22.020Z,9.23
2017-05-01T19:44:49.431Z,11.20
2017-05-01T19:47:16.803Z,15.50
2017-05-01T19:49:44.908Z,12.76
2017-05-01T19:52:12.316Z,12.54
2017-05-01T19:54:39.612Z,11.78
2017-05-01T19:57:06.952Z,9.36
2017-05-01T19:59:35.173Z,11.98
2017-05-01T20:02:02.497Z,11.64
2017-05-01T20:04:30.584Z,11.75
2017-05-01T20:06:58.741Z,9.90
2017-05-01T20:09:26.126Z,8.95
2017-05-01T20:11:53.504Z,10.47
2017-05-01T20:14:20.918Z,10.94
2017-05-01T20:16:49.335Z,11.22
2017-05-01T20:19:16.791Z,11.18
2017-05-01T20:21:44.138Z,7.40
2017-05-01T20:24:12.298Z,10.67
2017-05-01T20:26:39.647Z,8.52
2017-05-01T20:29:07.002Z,8.60
2017-05-01T20:31:34.318Z,8.88
2017-05-01T20:34:02.496Z,11.48
2017-05-01T20:36:29.881Z,10.58
2017-05-01T20:38:57.270Z,11.88
2017-05-01T20:41:24.600Z,14.34
2017-05-01T20:43:51.945Z,14.00
2017-05-01T20:46:19.404Z,15.58
2017-05-01T20:48:46.744Z,12.45
2017-05-01T20:51:14.980Z,13.12
2017-05-01T20:53:42.339Z,14.46
2017-05-01T20:56:09.671Z,16.45
2017-05-01T20:58:36.964Z,15.03
2017-05-01T21:01:04.287Z,11.85
2017-05-01T21:03:31.593Z,16.35
2017-05-01T21:05:58.911Z,16.68
2017-05-01T21:08:26.330Z,14.75
2017-05-01T21:10:53.629Z,20.08
2017-05-01T21:13:20.937Z,17.98
2017-05-01T21:15:48.381Z,14.10
2017-05-01T21:18:15.715Z,17.58
2017-05-01T21:20:43.096Z,18.87
2017-05-01T21:23:10.492Z,12.46
2017-05-01T21:25:44.734Z,17.06
2017-05-01T21:28:12.028Z,16.83
2017-05-01T21:30:39.440Z,16.50
2017-05-01T21:33:07.560Z,18.43
2017-05-01T21:35:35.082Z,19.94
2017-05-01T21:38:02.444Z,19.08
2017-05-01T21:40:30.672Z,16.20
2017-05-01T21:42:57.991Z,16.42
2017-05-01T21:45:25.270Z,16.40
2017-05-01T21:47:59.653Z,14.43
2017-05-01T21:50:27.685Z,16.10
2017-05-01T21:52:54.968Z,12.40
2017-05-01T21:55:22.312Z,12.00
2017-05-01T21:57:49.602Z,12.33
2017-05-01T22:00:17.684Z,10.83
2017-05-01T22:02:45.715Z,10.75
2017-05-01T22:05:13.266Z,10.70
2017-05-01T22:07:40.584Z,13.18
2017-05-01T22:10:15.547Z,14.73
2017-05-01T22:12:42.866Z,12.03
2017-05-01T22:15:10.164Z,17.58
2017-05-01T22:17:37.460Z,15.32
2017-05-01T22:20:04.764Z,15.05
2017-05-01T22:22:32.060Z,14.17
2017-05-01T22:24:59.428Z,17.33
2017-05-01T22:27:26.770Z,16.87
2017-05-01T22:29:54.068Z,16.23
2017-05-01T22:32:21.397Z,16.14
2017-05-01T22:34:48.688Z,11.62
2017-05-01T22:37:15.931Z,11.65
2017-05-01T22:39:43.249Z,12.84
2017-05-01T22:42:10.600Z,12.23
2017-05-01T22:44:37.909Z,14.17
2017-05-01T22:47:05.278Z,10.75
2017-05-01T22:49:32.643Z,11.92
2017-05-01T22:51:59.999Z,9.88
2017-05-01T22:54:27.356Z,11.77
2017-05-01T22:56:54.680Z,11.05
2017-05-01T22:59:22.047Z,9.63
2017-05-01T23:01:49.445Z,10.43
2017-05-01T23:04:16.875Z,10.50
2017-05-01T23:06:44.196Z,9.12
2017-05-01T23:09:11.572Z,7.78
2017-05-01T23:11:38.874Z,7.90
2017-05-01T23:14:06.344Z,7.43
2017-05-01T23:16:33.611Z,10.40
2017-05-01T23:19:00.999Z,7.48
2017-05-01T23:21:28.328Z,7.57
2017-05-01T23:23:55.635Z,8.68
2017-05-01T23:26:22.983Z,8.30
2017-05-01T23:28:50.306Z,13.10
2017-05-01T23:31:17.752Z,5.77
2017-05-01T23:33:45.180Z,5.82
2017-05-01T23:36:12.453Z,6.72
2017-05-01T23:38:39.745Z,9.00
2017-05-01T23:41:07.080Z,8.53
2017-05-01T23:43:34.464Z,11.83
2017-05-01T23:46:01.920Z,8.10
2017-05-01T23:48:29.268Z,6.93
2017-05-01T23:50:56.552Z,8.68
2017-05-01T23:53:24.606Z,9.02
2017-05-01T23:55:51.932Z,9.62
2017-05-01T23:58:19.259Z,10.27
